Time;durP1;ratioP1;P1;durP2;ratioP2;P2;SDS_P1;SDS_P2;PMS_P1;PMS_P2;Temp;Humidity;BMP_temperature;BMP_pressure;BME280_temperature;BME280_humidity;BME280_pressure;Samples;Min_cycle;Max_cycle;Signal;HPM_P1;HPM_P2
2023/03/24 00:04:03;;;;;;;6.47;4.27;;;8.10;99.90;;;;;;10459501;28;20243;-76
2023/03/24 00:09:24;;;;;;;11.27;6.63;;;8.00;99.90;;;;;;10474647;28;20599;-75
2023/03/24 00:14:45;;;;;;;23.27;9.40;;;8.00;99.90;;;;;;10473425;28;20203;-76
2023/03/24 00:20:13;;;;;;;15.60;7.43;;;8.00;99.90;;;;;;10404897;28;20431;-76
2023/03/24 00:25:38;;;;;;;13.67;5.60;;;7.90;99.90;;;;;;10431489;28;20259;-75
2023/03/24 00:31:03;;;;;;;8.87;4.73;;;8.00;99.90;;;;;;10438062;28;20204;-75
2023/03/24 00:36:27;;;;;;;9.83;4.43;;;8.00;99.90;;;;;;10438449;28;20199;-75
2023/03/24 00:41:48;;;;;;;11.47;4.87;;;8.00;99.90;;;;;;10422930;28;20235;-75
2023/03/24 00:47:10;;;;;;;6.83;3.93;;;8.00;99.90;;;;;;10396081;28;20226;-75
2023/03/24 00:52:34;;;;;;;5.83;3.07;;;8.10;99.90;;;;;;10382225;28;20391;-76
2023/03/24 00:57:56;;;;;;;5.40;3.63;;;8.10;99.90;;;;;;10429995;28;20207;-78
2023/03/24 01:03:20;;;;;;;9.90;5.80;;;8.20;99.90;;;;;;10381131;28;20308;-77
2023/03/24 01:08:42;;;;;;;9.43;6.30;;;8.20;99.90;;;;;;10402372;28;20194;-78
2023/03/24 01:14:03;;;;;;;10.00;5.57;;;8.20;99.90;;;;;;10477328;28;20202;-78
2023/03/24 01:19:25;;;;;;;8.53;5.30;;;8.20;99.90;;;;;;10395909;28;20200;-77
2023/03/24 01:24:47;;;;;;;9.90;6.67;;;8.20;99.90;;;;;;10424530;28;20533;-77
2023/03/24 01:30:11;;;;;;;7.10;5.43;;;8.20;99.90;;;;;;10435734;28;20191;-76
2023/03/24 01:35:33;;;;;;;8.30;5.80;;;8.20;99.90;;;;;;10421596;28;20199;-76
2023/03/24 01:40:54;;;;;;;9.90;5.97;;;8.20;99.90;;;;;;10434655;28;20270;-76
2023/03/24 01:46:18;;;;;;;7.30;5.80;;;8.20;99.90;;;;;;10384360;28;20211;-77
2023/03/24 01:51:43;;;;;;;8.80;6.47;;;8.20;99.90;;;;;;10394018;28;20227;-76
2023/03/24 01:57:27;;;;;;;11.30;6.30;;;8.20;99.90;;;;;;10430147;28;20209;-77
2023/03/24 02:03:02;;;;;;;12.40;7.07;;;8.20;99.90;;;;;;10421087;28;20220;-77
2023/03/24 02:08:45;;;;;;;11.17;6.67;;;8.20;99.90;;;;;;10425656;28;20271;-77
2023/03/24 02:14:07;;;;;;;12.40;7.47;;;8.20;99.90;;;;;;10394676;28;20222;-78
2023/03/24 02:19:37;;;;;;;6.40;5.17;;;8.20;99.90;;;;;;10402473;28;20489;-77
2023/03/24 02:25:08;;;;;;;8.60;6.17;;;8.20;99.90;;;;;;10420399;28;20255;-77
2023/03/24 02:31:09;;;;;;;8.90;6.17;;;8.20;99.90;;;;;;10433037;28;20207;-77
2023/03/24 02:36:39;;;;;;;7.30;5.67;;;8.20;99.90;;;;;;10420357;28;20258;-77
2023/03/24 02:42:01;;;;;;;9.23;6.30;;;8.30;99.90;;;;;;10432199;28;20249;-77
2023/03/24 02:47:31;;;;;;;7.10;6.03;;;8.20;99.90;;;;;;10376959;28;20238;-77
2023/03/24 02:52:59;;;;;;;8.50;6.03;;;8.20;99.90;;;;;;10400767;28;20497;-77
2023/03/24 02:58:34;;;;;;;14.03;8.80;;;8.20;99.90;;;;;;10400554;28;20201;-77
2023/03/24 03:04:17;;;;;;;9.03;7.03;;;8.20;99.90;;;;;;10447273;28;20248;-77
2023/03/24 03:09:43;;;;;;;8.60;7.37;;;8.20;99.90;;;;;;10482470;28;20426;-77
2023/03/24 03:15:23;;;;;;;8.90;6.53;;;8.20;99.90;;;;;;10469686;28;20213;-75
2023/03/24 03:20:49;;;;;;;6.60;5.80;;;8.20;99.90;;;;;;10425066;28;20226;-76
2023/03/24 03:26:15;;;;;;;12.73;9.10;;;8.10;99.90;;;;;;10440079;28;20247;-75
2023/03/24 03:31:49;;;;;;;13.83;10.03;;;8.00;99.90;;;;;;10439817;28;20187;-75
2023/03/24 03:37:17;;;;;;;11.13;7.20;;;8.10;99.90;;;;;;10426079;28;20277;-75
2023/03/24 03:42:38;;;;;;;5.33;4.80;;;8.10;99.90;;;;;;10418427;28;20255;-75
2023/03/24 03:48:00;;;;;;;5.90;4.67;;;8.10;99.90;;;;;;10432125;28;20200;-77
2023/03/24 03:53:32;;;;;;;5.57;4.67;;;8.10;99.90;;;;;;10439384;28;20191;-77
2023/03/24 03:58:53;;;;;;;6.53;4.90;;;8.00;99.90;;;;;;10438775;28;20196;-77
2023/03/24 04:04:36;;;;;;;9.00;6.83;;;8.00;99.90;;;;;;10465881;28;20229;-77
2023/03/24 04:10:18;;;;;;;8.43;6.07;;;7.90;99.90;;;;;;10465389;28;20227;-76
2023/03/24 04:15:59;;;;;;;7.67;5.73;;;7.80;99.90;;;;;;10470176;28;20209;-76
2023/03/24 04:21:57;;;;;;;8.70;6.83;;;7.80;99.90;;;;;;10457883;28;20312;-77
2023/03/24 04:27:28;;;;;;;11.30;6.60;;;7.90;99.90;;;;;;10437558;28;20201;-76
2023/03/24 04:33:00;;;;;;;9.90;7.10;;;7.90;99.90;;;;;;10418478;28;20213;-76
2023/03/24 04:38:26;;;;;;;10.57;6.97;;;7.90;99.90;;;;;;10437643;28;20206;-77
2023/03/24 04:44:02;;;;;;;8.37;6.63;;;8.00;99.90;;;;;;10418187;28;20239;-77
2023/03/24 04:49:27;;;;;;;11.77;7.10;;;8.10;99.90;;;;;;10436466;28;20200;-77
2023/03/24 04:54:48;;;;;;;9.97;6.13;;;8.00;99.90;;;;;;10437471;28;20201;-77
2023/03/24 05:00:11;;;;;;;7.33;5.90;;;8.00;99.90;;;;;;10439621;28;20249;-76
2023/03/24 05:05:34;;;;;;;8.27;5.40;;;8.00;99.90;;;;;;10477732;28;20297;-77
2023/03/24 05:10:55;;;;;;;7.90;6.43;;;8.00;99.90;;;;;;10477224;28;20186;-76
2023/03/24 05:16:16;;;;;;;9.03;6.40;;;7.90;99.90;;;;;;10421069;28;20481;-77
2023/03/24 05:21:48;;;;;;;9.17;6.37;;;7.90;99.90;;;;;;10415748;28;20476;-77
2023/03/24 05:27:10;;;;;;;7.00;5.70;;;7.90;99.90;;;;;;10435975;28;20231;-77
2023/03/24 05:32:32;;;;;;;9.03;6.50;;;7.90;99.90;;;;;;10407825;28;20208;-76
2023/03/24 05:37:53;;;;;;;14.17;10.70;;;8.00;99.90;;;;;;10395779;28;20223;-77
2023/03/24 05:43:15;;;;;;;12.83;10.20;;;8.00;99.90;;;;;;10404044;28;20246;-77
2023/03/24 05:48:50;;;;;;;11.37;7.23;;;8.10;99.90;;;;;;10395592;28;20369;-76
2023/03/24 05:54:12;;;;;;;15.77;11.03;;;8.10;99.90;;;;;;10394087;28;20190;-77
2023/03/24 05:59:36;;;;;;;12.93;7.93;;;8.10;99.90;;;;;;10423935;28;20245;-77
2023/03/24 06:05:30;;;;;;;11.10;8.10;;;8.20;99.90;;;;;;10418603;28;20303;-77
2023/03/24 06:10:52;;;;;;;50.47;26.83;;;8.20;99.90;;;;;;10434777;28;20194;-77
2023/03/24 06:16:17;;;;;;;21.37;15.10;;;8.20;99.90;;;;;;10433490;28;20229;-77
2023/03/24 06:21:49;;;;;;;15.47;11.10;;;8.30;99.90;;;;;;10434399;28;20402;-77
2023/03/24 06:27:14;;;;;;;20.90;14.20;;;8.30;99.90;;;;;;10440816;28;20199;-76
2023/03/24 06:32:37;;;;;;;23.80;13.90;;;8.40;99.90;;;;;;10406661;28;20206;-77
2023/03/24 06:37:58;;;;;;;22.37;14.20;;;8.60;99.90;;;;;;10441388;28;20220;-77
2023/03/24 06:43:20;;;;;;;15.03;11.27;;;8.70;99.90;;;;;;10432273;28;20240;-75
2023/03/24 06:48:42;;;;;;;21.40;15.43;;;8.80;99.90;;;;;;10400251;28;20404;-74
2023/03/24 06:54:03;;;;;;;15.43;10.03;;;8.80;99.90;;;;;;10400173;28;20267;-77
2023/03/24 06:59:24;;;;;;;17.60;11.13;;;9.00;99.90;;;;;;10435520;28;20191;-75
2023/03/24 07:04:46;;;;;;;17.07;9.40;;;9.00;99.90;;;;;;10441305;28;20216;-76
2023/03/24 07:10:18;;;;;;;14.17;9.33;;;9.20;99.90;;;;;;10441276;28;20190;-76
2023/03/24 07:15:39;;;;;;;11.53;8.07;;;9.40;99.90;;;;;;10448477;28;20245;-77
2023/03/24 07:21:03;;;;;;;13.40;8.27;;;9.50;99.90;;;;;;10413938;28;20479;-76
2023/03/24 07:26:26;;;;;;;13.97;8.73;;;9.40;99.90;;;;;;10423754;28;20521;-76
2023/03/24 07:31:53;;;;;;;15.93;9.90;;;9.50;99.90;;;;;;10440104;28;20199;-76
2023/03/24 07:37:15;;;;;;;15.37;9.27;;;9.40;99.90;;;;;;10405917;28;20196;-76
2023/03/24 07:42:44;;;;;;;18.07;12.70;;;9.50;99.90;;;;;;10404847;28;20586;-76
2023/03/24 07:48:34;;;;;;;15.20;10.37;;;9.50;99.90;;;;;;10401304;28;20292;-76
2023/03/24 07:53:55;;;;;;;16.33;10.77;;;9.50;99.90;;;;;;10397877;28;20276;-77
2023/03/24 07:59:28;;;;;;;18.63;13.53;;;9.60;99.90;;;;;;10425326;28;20208;-77
2023/03/24 08:05:13;;;;;;;14.93;10.00;;;9.70;99.90;;;;;;10398181;28;20231;-76
2023/03/24 08:10:56;;;;;;;10.67;8.37;;;9.70;99.90;;;;;;10390974;28;20229;-76
2023/03/24 08:16:17;;;;;;;13.77;9.17;;;9.90;99.90;;;;;;10415553;28;20283;-77
2023/03/24 08:21:38;;;;;;;12.53;8.83;;;9.90;99.90;;;;;;10432334;28;20191;-77
2023/03/24 08:27:01;;;;;;;13.53;9.67;;;9.80;99.90;;;;;;10416595;28;20222;-77
2023/03/24 08:32:22;;;;;;;22.30;14.53;;;9.80;99.90;;;;;;10433674;28;20499;-78
2023/03/24 08:37:44;;;;;;;15.30;11.03;;;9.80;99.90;;;;;;10431802;28;20472;-77
2023/03/24 08:43:07;;;;;;;15.40;9.63;;;9.90;99.90;;;;;;10420956;28;20250;-77
2023/03/24 08:48:29;;;;;;;11.67;9.00;;;10.00;99.90;;;;;;10432166;28;20231;-80
2023/03/24 08:53:51;;;;;;;13.57;9.20;;;10.20;99.90;;;;;;10430370;28;20221;-78
2023/03/24 08:59:12;;;;;;;13.87;9.13;;;10.40;99.90;;;;;;10434350;28;20394;-78
2023/03/24 09:04:33;;;;;;;20.47;12.53;;;10.60;99.90;;;;;;10401024;28;20238;-76
2023/03/24 09:09:55;;;;;;;12.50;9.33;;;10.60;99.90;;;;;;10410036;28;20208;-78
2023/03/24 09:15:16;;;;;;;10.63;8.80;;;10.70;99.90;;;;;;10411880;28;20529;-78
2023/03/24 09:20:38;;;;;;;8.77;6.67;;;11.10;99.90;;;;;;10430370;28;20203;-80
2023/03/24 09:26:00;;;;;;;9.20;7.00;;;11.50;99.90;;;;;;10425513;28;20250;-77
2023/03/24 09:31:21;;;;;;;11.90;9.37;;;11.70;99.90;;;;;;10394391;28;20278;-78
2023/03/24 09:36:42;;;;;;;12.50;8.40;;;11.90;99.90;;;;;;10387775;28;20206;-77
2023/03/24 09:42:13;;;;;;;10.23;8.13;;;11.90;99.90;;;;;;10402122;28;20235;-78
2023/03/24 09:47:41;;;;;;;14.17;9.57;;;11.80;99.90;;;;;;10415756;28;20415;-76
2023/03/24 09:53:33;;;;;;;11.20;8.23;;;11.80;99.90;;;;;;10405771;28;20279;-78
2023/03/24 09:59:39;;;;;;;12.63;9.00;;;11.70;99.90;;;;;;10446754;28;20278;-78
2023/03/24 10:05:00;;;;;;;14.23;9.67;;;11.70;99.90;;;;;;10405444;28;20469;-81
2023/03/24 10:11:02;;;;;;;16.77;10.37;;;11.80;99.90;;;;;;10406581;28;20206;-80
2023/03/24 10:16:48;;;;;;;17.60;11.40;;;11.90;99.90;;;;;;10428975;28;20293;-80
2023/03/24 10:22:09;;;;;;;15.20;9.20;;;12.40;99.90;;;;;;10433246;28;20268;-82
2023/03/24 10:27:41;;;;;;;14.83;9.50;;;13.00;99.90;;;;;;10437431;28;20198;-82
2023/03/24 10:33:02;;;;;;;35.30;21.90;;;13.10;99.90;;;;;;10418063;28;20231;-77
2023/03/24 10:38:23;;;;;;;18.70;12.03;;;13.40;99.90;;;;;;10412862;28;20252;-77
2023/03/24 10:43:47;;;;;;;19.03;11.70;;;13.20;99.90;;;;;;10399025;28;20245;-77
2023/03/24 10:49:08;;;;;;;26.63;16.60;;;12.90;99.90;;;;;;10404483;28;20283;-78
2023/03/24 10:54:30;;;;;;;32.70;18.37;;;12.90;99.90;;;;;;10416608;28;20222;-83
2023/03/24 10:59:59;;;;;;;13.17;6.80;;;12.90;99.90;;;;;;10436466;28;20194;-78
2023/03/24 11:05:27;;;;;;;13.90;9.00;;;12.90;99.90;;;;;;10431899;28;20250;-78
2023/03/24 11:10:49;;;;;;;22.70;13.23;;;13.00;99.90;;;;;;10453557;28;20567;-85
2023/03/24 11:16:12;;;;;;;14.50;7.57;;;13.10;99.90;;;;;;10432440;28;20234;-77
2023/03/24 11:21:36;;;;;;;6.53;5.20;;;12.90;99.90;;;;;;10388011;28;20268;-78
2023/03/24 11:27:00;;;;;;;19.27;10.97;;;13.00;99.90;;;;;;10406513;28;20308;-79
2023/03/24 11:32:26;;;;;;;22.37;9.70;;;12.90;99.90;;;;;;10394107;28;20580;-80
2023/03/24 11:37:48;;;;;;;10.87;5.17;;;12.80;99.90;;;;;;10435303;28;20237;-77
2023/03/24 11:43:19;;;;;;;9.17;5.60;;;12.70;99.90;;;;;;10450654;28;20242;-76
2023/03/24 11:48:51;;;;;;;23.37;11.83;;;12.70;99.90;;;;;;10462688;28;20228;-78
2023/03/24 11:54:17;;;;;;;19.63;8.40;;;12.60;99.90;;;;;;10436116;28;21336;-76
2023/03/24 11:59:50;;;;;;;9.83;6.60;;;12.60;99.90;;;;;;10476025;28;20288;-80
2023/03/24 12:05:33;;;;;;;35.40;18.23;;;12.70;99.90;;;;;;10466352;28;20240;-83
2023/03/24 12:11:14;;;;;;;32.70;18.63;;;12.60;99.90;;;;;;10439968;28;20228;-78
2023/03/24 12:16:42;;;;;;;14.73;8.67;;;12.70;99.90;;;;;;10429990;28;20245;-78
2023/03/24 12:22:25;;;;;;;11.17;7.67;;;12.70;99.90;;;;;;10432250;28;20255;-83
2023/03/24 12:28:09;;;;;;;17.37;11.30;;;12.60;99.90;;;;;;10430356;28;20303;-83
2023/03/24 12:33:32;;;;;;;20.97;11.37;;;12.60;99.90;;;;;;10418327;28;20233;-78
2023/03/24 12:39:11;;;;;;;9.80;5.97;;;12.60;99.90;;;;;;10410204;28;20511;-77
2023/03/24 12:44:51;;;;;;;9.93;6.70;;;12.60;99.90;;;;;;10402730;28;20259;-77
2023/03/24 12:50:38;;;;;;;9.40;6.00;;;12.60;99.90;;;;;;10464479;28;20273;-78
2023/03/24 12:56:02;;;;;;;11.63;8.10;;;12.50;99.90;;;;;;10436730;28;20215;-77
2023/03/24 13:01:45;;;;;;;7.63;6.13;;;12.50;99.90;;;;;;10431727;28;20233;-82
2023/03/24 13:07:10;;;;;;;7.23;5.43;;;12.40;99.90;;;;;;10429740;28;20236;-77
2023/03/24 13:12:44;;;;;;;9.80;6.63;;;12.50;99.90;;;;;;10430144;28;20216;-77
2023/03/24 13:18:08;;;;;;;9.13;5.60;;;12.40;99.90;;;;;;10416163;28;20253;-76
2023/03/24 13:23:38;;;;;;;8.20;4.73;;;12.40;99.90;;;;;;10446401;28;20245;-77
2023/03/24 13:29:02;;;;;;;6.20;5.00;;;12.40;99.90;;;;;;10435744;28;20206;-77
2023/03/24 13:34:32;;;;;;;6.00;4.33;;;12.30;99.90;;;;;;10431665;28;20280;-77
2023/03/24 13:39:58;;;;;;;6.37;4.50;;;12.30;99.90;;;;;;10441200;28;20523;-76
2023/03/24 13:45:34;;;;;;;7.97;5.17;;;12.40;99.90;;;;;;10449629;28;20237;-77
2023/03/24 13:51:34;;;;;;;12.67;7.77;;;12.30;99.90;;;;;;10444147;28;20228;-77
2023/03/24 13:57:19;;;;;;;12.93;8.43;;;12.30;99.90;;;;;;10449503;28;20227;-81
2023/03/24 14:02:51;;;;;;;6.23;4.50;;;12.30;99.90;;;;;;10431645;28;20230;-77
2023/03/24 14:08:16;;;;;;;6.33;4.63;;;12.40;99.90;;;;;;10444805;28;20199;-78
2023/03/24 14:13:46;;;;;;;7.00;4.30;;;12.50;99.90;;;;;;10421826;28;20244;-80
2023/03/24 14:19:40;;;;;;;9.03;6.40;;;12.50;99.90;;;;;;10417548;28;20286;-78
2023/03/24 14:25:33;;;;;;;8.03;5.07;;;12.40;99.90;;;;;;10422249;28;20473;-78
2023/03/24 14:30:59;;;;;;;8.57;5.13;;;12.40;99.90;;;;;;10428580;28;20274;-78
2023/03/24 14:36:39;;;;;;;7.03;4.60;;;12.50;99.90;;;;;;10444979;28;20489;-78
2023/03/24 14:42:20;;;;;;;6.23;4.03;;;12.50;99.90;;;;;;10431912;28;20273;-78
2023/03/24 14:47:42;;;;;;;3.60;3.00;;;12.70;99.90;;;;;;10444677;28;20274;-77
2023/03/24 14:53:03;;;;;;;3.90;2.40;;;12.90;99.90;;;;;;10459907;28;20194;-77
2023/03/24 14:58:35;;;;;;;3.73;3.10;;;13.10;99.90;;;;;;10424017;28;20293;-77
2023/03/24 15:04:03;;;;;;;5.57;3.23;;;13.20;99.90;;;;;;10453714;28;20269;-77
2023/03/24 15:09:24;;;;;;;6.50;4.27;;;13.20;99.90;;;;;;10443341;28;20222;-78
2023/03/24 15:14:46;;;;;;;8.10;4.83;;;13.10;99.90;;;;;;10437941;28;20211;-77
2023/03/24 15:20:22;;;;;;;7.88;3.33;;;13.00;99.90;;;;;;10431093;28;20243;-77
2023/03/24 15:25:43;;;;;;;4.70;3.30;;;12.90;99.90;;;;;;10462726;28;20234;-78
2023/03/24 15:31:05;;;;;;;4.47;3.17;;;12.80;99.90;;;;;;10433230;28;20393;-83
2023/03/24 15:36:26;;;;;;;3.23;2.87;;;12.70;99.90;;;;;;10450321;28;20204;-80
2023/03/24 15:41:51;;;;;;;5.70;3.90;;;12.60;99.90;;;;;;10449658;28;20711;-78
2023/03/24 15:47:20;;;;;;;9.10;5.77;;;12.30;99.90;;;;;;10427233;28;20236;-77
2023/03/24 15:52:41;;;;;;;14.57;6.30;;;12.20;99.90;;;;;;10445960;28;20308;-79
2023/03/24 15:58:27;;;;;;;6.80;4.30;;;12.10;99.90;;;;;;10434704;28;20202;-79
2023/03/24 16:03:48;;;;;;;6.93;2.67;;;11.80;99.90;;;;;;10451239;28;20248;-78
2023/03/24 16:09:14;;;;;;;10.70;3.67;;;11.50;99.90;;;;;;10433965;28;20227;-77
2023/03/24 16:14:37;;;;;;;10.80;4.67;;;11.30;99.90;;;;;;10407417;28;20220;-78
2023/03/24 16:19:58;;;;;;;9.87;4.80;;;11.10;99.90;;;;;;10436001;28;20207;-78
2023/03/24 16:25:19;;;;;;;12.57;5.83;;;11.10;99.90;;;;;;10435897;28;20224;-76
2023/03/24 16:30:43;;;;;;;11.87;6.27;;;11.10;99.90;;;;;;10434901;28;20403;-77
2023/03/24 16:36:04;;;;;;;12.50;5.97;;;11.00;99.90;;;;;;10435746;28;20195;-78
2023/03/24 16:41:25;;;;;;;11.97;5.63;;;11.00;99.90;;;;;;10435471;28;20476;-77
2023/03/24 16:46:49;;;;;;;12.77;6.10;;;10.90;99.90;;;;;;10436994;28;20298;-77
2023/03/24 16:52:12;;;;;;;14.77;7.40;;;10.90;99.90;;;;;;10436603;28;20202;-77
2023/03/24 16:57:33;;;;;;;15.33;7.33;;;10.80;99.90;;;;;;10436233;28;20197;-77
2023/03/24 17:02:55;;;;;;;9.17;4.00;;;10.80;99.90;;;;;;10435789;28;20259;-77
2023/03/24 17:08:17;;;;;;;6.23;2.80;;;10.70;99.90;;;;;;10436485;28;20244;-79
2023/03/24 17:13:38;;;;;;;8.47;3.03;;;10.70;99.90;;;;;;10400086;28;20198;-77
2023/03/24 17:18:59;;;;;;;7.53;2.10;;;10.60;99.90;;;;;;10414220;28;20461;-78
2023/03/24 17:24:22;;;;;;;7.30;2.50;;;10.50;99.90;;;;;;10424900;28;20596;-77
2023/03/24 17:29:45;;;;;;;13.53;4.33;;;10.40;99.90;;;;;;10436341;28;20495;-77
2023/03/24 17:35:10;;;;;;;16.13;7.10;;;10.30;99.90;;;;;;10435292;28;20197;-77
2023/03/24 17:40:31;;;;;;;31.50;15.10;;;10.30;99.90;;;;;;10435707;28;20295;-77
2023/03/24 17:45:56;;;;;;;51.90;32.17;;;10.20;99.90;;;;;;10435528;28;20231;-77
2023/03/24 17:51:17;;;;;;;50.80;29.03;;;10.20;99.90;;;;;;10435520;28;20505;-76
2023/03/24 17:56:38;;;;;;;44.97;23.33;;;10.20;99.90;;;;;;10435310;28;20480;-77
2023/03/24 18:01:59;;;;;;;41.97;20.20;;;10.10;99.90;;;;;;10434681;28;20224;-76
2023/03/24 18:07:21;;;;;;;15.83;8.30;;;10.10;99.90;;;;;;10434200;28;20226;-77
2023/03/24 18:12:43;;;;;;;18.70;8.13;;;10.00;99.90;;;;;;10435308;28;20250;-77
2023/03/24 18:18:04;;;;;;;17.27;8.90;;;10.00;99.90;;;;;;10413255;28;20200;-77
2023/03/24 18:23:25;;;;;;;17.13;7.30;;;9.90;99.90;;;;;;10442414;28;20196;-78
2023/03/24 18:28:47;;;;;;;16.60;7.13;;;9.90;99.90;;;;;;10441762;28;20201;-76
2023/03/24 18:34:08;;;;;;;17.93;8.97;;;9.90;99.90;;;;;;10442804;28;20545;-77
2023/03/24 18:39:29;;;;;;;23.53;11.03;;;9.80;99.90;;;;;;10441558;28;20260;-77
2023/03/24 18:44:51;;;;;;;19.17;7.30;;;9.70;99.90;;;;;;10442436;28;20228;-76
2023/03/24 18:50:12;;;;;;;13.87;5.63;;;9.60;99.90;;;;;;10442393;28;20396;-77
2023/03/24 18:55:33;;;;;;;12.23;4.53;;;9.50;99.90;;;;;;10440772;28;20226;-76
2023/03/24 19:00:56;;;;;;;7.20;3.40;;;9.40;99.90;;;;;;10440889;28;20202;-78
2023/03/24 19:06:18;;;;;;;7.93;3.00;;;9.30;99.90;;;;;;10440326;28;20229;-77
2023/03/24 19:11:40;;;;;;;8.17;2.77;;;9.30;99.90;;;;;;10440540;28;20192;-77
2023/03/24 19:17:03;;;;;;;7.97;2.90;;;9.30;99.90;;;;;;10422765;28;20211;-77
2023/03/24 19:22:25;;;;;;;10.07;2.60;;;9.20;99.90;;;;;;10425684;28;20205;-78
2023/03/24 19:27:47;;;;;;;10.27;4.17;;;9.20;99.90;;;;;;10440625;28;20440;-78
2023/03/24 19:33:10;;;;;;;19.37;8.53;;;9.10;99.90;;;;;;10440085;28;20504;-77
2023/03/24 19:38:31;;;;;;;68.77;32.53;;;9.10;99.90;;;;;;10440156;28;20436;-77
2023/03/24 19:43:52;;;;;;;107.67;53.50;;;9.00;99.90;;;;;;10439851;28;20435;-77
2023/03/24 19:49:14;;;;;;;91.57;46.33;;;8.90;99.90;;;;;;10439813;28;20201;-78
2023/03/24 19:54:36;;;;;;;50.33;26.47;;;8.90;99.90;;;;;;10439494;28;20215;-76
2023/03/24 19:59:57;;;;;;;41.63;20.03;;;8.80;99.90;;;;;;10439562;28;20193;-77
2023/03/24 20:05:17;;;;;;;29.13;13.90;;;8.70;99.90;;;;;;10439208;28;20230;-78
2023/03/24 20:10:39;;;;;;;32.83;15.77;;;8.70;99.90;;;;;;10439103;28;20190;-78
2023/03/24 20:16:00;;;;;;;33.80;15.70;;;8.70;99.90;;;;;;10414910;28;20239;-78
2023/03/24 20:21:21;;;;;;;27.57;13.10;;;8.60;99.90;;;;;;10427685;28;20201;-77
2023/03/24 20:26:43;;;;;;;18.20;10.03;;;8.60;99.90;;;;;;10423146;28;20470;-78
2023/03/24 20:32:07;;;;;;;17.47;8.97;;;8.60;99.90;;;;;;10423508;28;20221;-77
2023/03/24 20:37:29;;;;;;;21.70;10.07;;;8.50;99.90;;;;;;10436855;28;20227;-76
2023/03/24 20:42:50;;;;;;;25.23;12.37;;;8.50;99.90;;;;;;10421770;28;20533;-77
2023/03/24 20:48:11;;;;;;;77.87;34.93;;;8.40;99.90;;;;;;10437934;28;20518;-76
2023/03/24 20:53:34;;;;;;;92.40;37.17;;;8.30;99.90;;;;;;10436481;28;20192;-77
2023/03/24 20:58:55;;;;;;;86.57;44.30;;;8.20;99.90;;;;;;10437556;28;20219;-77
2023/03/24 21:04:17;;;;;;;70.97;33.37;;;8.20;99.90;;;;;;10436924;28;20231;-78
2023/03/24 21:09:38;;;;;;;58.67;22.83;;;8.20;99.90;;;;;;10436067;28;20265;-78
2023/03/24 21:15:00;;;;;;;31.90;14.00;;;8.00;99.90;;;;;;10434944;28;20196;-78
2023/03/24 21:20:21;;;;;;;20.67;9.87;;;8.00;99.90;;;;;;10418201;28;20431;-76
2023/03/24 21:25:42;;;;;;;34.53;14.57;;;7.90;99.90;;;;;;10435198;28;20226;-76
2023/03/24 21:31:09;;;;;;;18.23;9.27;;;7.90;99.90;;;;;;10436145;28;20199;-77
2023/03/24 21:36:30;;;;;;;15.40;7.77;;;7.80;99.90;;;;;;10434568;28;20378;-75
2023/03/24 21:41:53;;;;;;;12.40;7.20;;;7.80;99.90;;;;;;10435747;28;20494;-75
2023/03/24 21:47:17;;;;;;;15.00;7.50;;;7.80;99.90;;;;;;10420818;28;20229;-76
2023/03/24 21:52:42;;;;;;;15.73;8.53;;;7.80;99.90;;;;;;10434307;28;20418;-75
2023/03/24 21:58:03;;;;;;;12.90;7.03;;;7.80;99.90;;;;;;10435695;28;20296;-77
2023/03/24 22:03:24;;;;;;;14.20;8.93;;;7.70;99.90;;;;;;10434360;28;20214;-79
2023/03/24 22:08:47;;;;;;;17.33;9.73;;;7.60;99.90;;;;;;10435384;28;20225;-75
2023/03/24 22:14:08;;;;;;;22.20;11.87;;;7.50;99.90;;;;;;10433894;28;20198;-78
2023/03/24 22:19:29;;;;;;;23.93;13.67;;;7.40;99.90;;;;;;10412625;28;20563;-75
2023/03/24 22:24:50;;;;;;;35.07;20.03;;;7.30;99.90;;;;;;10435004;28;20451;-75
2023/03/24 22:30:13;;;;;;;62.17;30.30;;;7.20;99.90;;;;;;10434297;28;20190;-76
2023/03/24 22:35:37;;;;;;;108.73;47.73;;;7.10;99.90;;;;;;10433562;28;20516;-77
2023/03/24 22:41:01;;;;;;;276.20;113.37;;;7.10;99.90;;;;;;10434946;28;20232;-77
2023/03/24 22:46:23;;;;;;;207.53;97.20;;;7.10;99.90;;;;;;10434716;28;20222;-77
2023/03/24 22:51:44;;;;;;;136.70;68.93;;;7.00;99.90;;;;;;10433563;28;20280;-75
2023/03/24 22:57:05;;;;;;;81.57;40.90;;;6.90;99.90;;;;;;10434593;28;20544;-75
2023/03/24 23:02:25;;;;;;;64.30;32.37;;;6.80;99.90;;;;;;10434317;28;20216;-75
2023/03/24 23:07:47;;;;;;;59.23;30.00;;;6.70;99.90;;;;;;10413346;28;20257;-75
2023/03/24 23:13:09;;;;;;;47.53;27.10;;;6.70;99.90;;;;;;10401000;28;20194;-74
2023/03/24 23:18:30;;;;;;;41.70;22.80;;;6.80;99.90;;;;;;10419480;28;20209;-75
2023/03/24 23:23:51;;;;;;;32.63;19.17;;;6.80;99.90;;;;;;10441255;28;20213;-75
2023/03/24 23:29:12;;;;;;;38.93;20.33;;;6.90;99.90;;;;;;10441008;28;20213;-77
2023/03/24 23:34:34;;;;;;;31.93;18.93;;;6.80;99.90;;;;;;10440566;28;20190;-77
2023/03/24 23:39:56;;;;;;;34.53;23.10;;;6.90;99.90;;;;;;10440444;28;20197;-76
2023/03/24 23:45:19;;;;;;;21.20;12.47;;;6.90;99.90;;;;;;10438910;28;20459;-76
2023/03/24 23:50:40;;;;;;;18.77;10.53;;;6.90;99.90;;;;;;10440097;28;20202;-75
2023/03/24 23:56:07;;;;;;;19.37;10.90;;;7.00;99.90;;;;;;10439811;28;20194;-76
